sensor_id;sensor_type;location;lat;lon;timestamp;pressure;altitude;pressure_sealevel;temperature;humidity
82249;BME280;71851;49.092;18.918;2024-03-17T00:02:27;97338.53;;;12.03;90.84
82249;BME280;71851;49.092;18.918;2024-03-17T00:05:27;97333.47;;;11.80;92.87
82249;BME280;71851;49.092;18.918;2024-03-17T00:08:28;97343.09;;;11.73;89.00
82249;BME280;71851;49.092;18.918;2024-03-17T00:11:28;97347.06;;;11.83;87.88
82249;BME280;71851;49.092;18.918;2024-03-17T00:14:29;97351.75;;;11.88;87.82
82249;BME280;71851;49.092;18.918;2024-03-17T00:17:29;97346.34;;;11.60;89.88
82249;BME280;71851;49.092;18.918;2024-03-17T00:20:30;97353.69;;;11.65;90.52
82249;BME280;71851;49.092;18.918;2024-03-17T00:23:32;97355.16;;;11.53;91.04
82249;BME280;71851;49.092;18.918;2024-03-17T00:26:32;97347.56;;;11.93;90.80
82249;BME280;71851;49.092;18.918;2024-03-17T00:29:34;97346.38;;;11.96;88.19
82249;BME280;71851;49.092;18.918;2024-03-17T00:32:35;97349.97;;;11.38;91.50
82249;BME280;71851;49.092;18.918;2024-03-17T00:35:36;97354.44;;;11.94;87.92
82249;BME280;71851;49.092;18.918;2024-03-17T00:38:36;97346.00;;;11.99;88.37
82249;BME280;71851;49.092;18.918;2024-03-17T00:41:37;97353.69;;;12.01;88.29
82249;BME280;71851;49.092;18.918;2024-03-17T00:44:38;97362.84;;;11.83;88.51
82249;BME280;71851;49.092;18.918;2024-03-17T00:47:39;97354.81;;;11.91;84.76
82249;BME280;71851;49.092;18.918;2024-03-17T00:50:39;97344.13;;;11.93;85.12
82249;BME280;71851;49.092;18.918;2024-03-17T00:53:40;97343.28;;;11.92;83.59
82249;BME280;71851;49.092;18.918;2024-03-17T00:56:40;97348.44;;;12.01;83.19
82249;BME280;71851;49.092;18.918;2024-03-17T00:59:41;97345.88;;;11.86;83.77
82249;BME280;71851;49.092;18.918;2024-03-17T01:02:44;97359.19;;;11.84;85.87
82249;BME280;71851;49.092;18.918;2024-03-17T01:05:45;97356.91;;;11.96;87.95
82249;BME280;71851;49.092;18.918;2024-03-17T01:08:47;97370.00;;;11.75;89.45
82249;BME280;71851;49.092;18.918;2024-03-17T01:11:48;97352.13;;;11.85;90.59
82249;BME280;71851;49.092;18.918;2024-03-17T01:14:49;97358.53;;;11.47;90.21
82249;BME280;71851;49.092;18.918;2024-03-17T01:17:49;97355.38;;;11.51;88.63
82249;BME280;71851;49.092;18.918;2024-03-17T01:20:50;97356.53;;;11.49;89.68
82249;BME280;71851;49.092;18.918;2024-03-17T01:23:51;97359.44;;;11.54;91.44
82249;BME280;71851;49.092;18.918;2024-03-17T01:26:51;97363.00;;;11.46;92.06
82249;BME280;71851;49.092;18.918;2024-03-17T01:29:53;97364.28;;;11.21;93.77
82249;BME280;71851;49.092;18.918;2024-03-17T01:32:53;97373.06;;;10.99;93.44
82249;BME280;71851;49.092;18.918;2024-03-17T01:35:54;97376.06;;;10.96;94.80
82249;BME280;71851;49.092;18.918;2024-03-17T01:38:55;97377.22;;;10.79;93.24
82249;BME280;71851;49.092;18.918;2024-03-17T01:41:55;97383.22;;;19.45;100.00
82249;BME280;71851;49.092;18.918;2024-03-17T01:44:56;97386.88;;;14.54;100.00
82249;BME280;71851;49.092;18.918;2024-03-17T01:47:57;97382.06;;;11.84;100.00
82249;BME280;71851;49.092;18.918;2024-03-17T01:50:59;97389.56;;;10.93;100.00
82249;BME280;71851;49.092;18.918;2024-03-17T01:53:59;97398.97;;;10.50;100.00
82249;BME280;71851;49.092;18.918;2024-03-17T01:57:00;97417.91;;;10.60;100.00
82249;BME280;71851;49.092;18.918;2024-03-17T02:00:01;97424.81;;;10.39;99.66
82249;BME280;71851;49.092;18.918;2024-03-17T02:03:09;97419.97;;;9.74;93.53
82249;BME280;71851;49.092;18.918;2024-03-17T02:06:09;97430.03;;;9.63;88.89
82249;BME280;71851;49.092;18.918;2024-03-17T02:09:10;97431.59;;;9.41;86.26
82249;BME280;71851;49.092;18.918;2024-03-17T02:12:10;97436.66;;;9.81;82.62
82249;BME280;71851;49.092;18.918;2024-03-17T02:15:12;97423.91;;;9.70;81.86
82249;BME280;71851;49.092;18.918;2024-03-17T02:18:14;97427.09;;;9.19;81.57
82249;BME280;71851;49.092;18.918;2024-03-17T02:21:15;97427.94;;;9.03;81.72
82249;BME280;71851;49.092;18.918;2024-03-17T02:24:16;97428.66;;;8.81;81.49
82249;BME280;71851;49.092;18.918;2024-03-17T02:27:16;97422.78;;;8.71;82.30
82249;BME280;71851;49.092;18.918;2024-03-17T02:30:17;97429.50;;;8.66;82.87
82249;BME280;71851;49.092;18.918;2024-03-17T02:33:17;97429.59;;;12.88;65.58
82249;BME280;71851;49.092;18.918;2024-03-17T02:36:18;97435.94;;;13.62;58.58
82249;BME280;71851;49.092;18.918;2024-03-17T02:39:19;97440.34;;;13.55;56.30
82249;BME280;71851;49.092;18.918;2024-03-17T02:42:31;97454.50;;;10.62;59.24
82249;BME280;71851;49.092;18.918;2024-03-17T02:45:32;97463.31;;;8.75;73.48
82249;BME280;71851;49.092;18.918;2024-03-17T02:48:32;97470.94;;;8.12;82.22
82249;BME280;71851;49.092;18.918;2024-03-17T02:51:32;97464.22;;;8.10;84.07
82249;BME280;71851;49.092;18.918;2024-03-17T02:54:34;97469.41;;;7.94;82.65
82249;BME280;71851;49.092;18.918;2024-03-17T02:57:35;97479.88;;;8.02;83.16
82249;BME280;71851;49.092;18.918;2024-03-17T03:00:35;97482.81;;;7.91;84.58
82249;BME280;71851;49.092;18.918;2024-03-17T03:03:36;97490.41;;;7.68;84.16
82249;BME280;71851;49.092;18.918;2024-03-17T03:06:37;97486.44;;;7.56;85.66
82249;BME280;71851;49.092;18.918;2024-03-17T03:09:39;97493.50;;;7.63;85.97
82249;BME280;71851;49.092;18.918;2024-03-17T03:12:41;97498.41;;;7.66;86.36
82249;BME280;71851;49.092;18.918;2024-03-17T03:15:41;97506.94;;;7.77;85.23
82249;BME280;71851;49.092;18.918;2024-03-17T03:18:43;97503.81;;;7.73;85.86
82249;BME280;71851;49.092;18.918;2024-03-17T03:21:45;97514.97;;;7.83;84.08
82249;BME280;71851;49.092;18.918;2024-03-17T03:24:45;97509.59;;;7.51;84.07
82249;BME280;71851;49.092;18.918;2024-03-17T03:27:47;97510.38;;;7.43;84.68
82249;BME280;71851;49.092;18.918;2024-03-17T03:30:48;97522.00;;;7.23;85.77
82249;BME280;71851;49.092;18.918;2024-03-17T03:33:48;97518.66;;;7.39;85.62
82249;BME280;71851;49.092;18.918;2024-03-17T03:36:49;97520.72;;;7.27;84.31
82249;BME280;71851;49.092;18.918;2024-03-17T03:39:50;97524.34;;;7.34;83.71
82249;BME280;71851;49.092;18.918;2024-03-17T03:42:52;97531.25;;;7.18;83.64
82249;BME280;71851;49.092;18.918;2024-03-17T03:45:54;97519.59;;;7.04;83.03
82249;BME280;71851;49.092;18.918;2024-03-17T03:48:56;97538.56;;;7.14;83.80
82249;BME280;71851;49.092;18.918;2024-03-17T03:51:56;97530.81;;;7.22;82.49
82249;BME280;71851;49.092;18.918;2024-03-17T03:54:57;97531.34;;;7.34;81.58
82249;BME280;71851;49.092;18.918;2024-03-17T03:57:59;97539.84;;;7.10;80.57
82249;BME280;71851;49.092;18.918;2024-03-17T04:01:04;97548.13;;;7.23;82.41
82249;BME280;71851;49.092;18.918;2024-03-17T04:04:04;97552.84;;;7.28;81.92
82249;BME280;71851;49.092;18.918;2024-03-17T04:07:05;97559.38;;;7.49;80.97
82249;BME280;71851;49.092;18.918;2024-03-17T04:10:06;97562.28;;;7.46;79.13
82249;BME280;71851;49.092;18.918;2024-03-17T04:13:07;97559.66;;;7.46;79.71
82249;BME280;71851;49.092;18.918;2024-03-17T04:16:08;97551.66;;;7.48;79.64
82249;BME280;71851;49.092;18.918;2024-03-17T04:19:11;97560.28;;;7.40;79.83
82249;BME280;71851;49.092;18.918;2024-03-17T04:22:11;97561.41;;;7.12;79.26
82249;BME280;71851;49.092;18.918;2024-03-17T04:25:12;97558.94;;;7.36;79.65
82249;BME280;71851;49.092;18.918;2024-03-17T04:28:15;97561.97;;;7.49;78.30
82249;BME280;71851;49.092;18.918;2024-03-17T04:31:15;97560.09;;;7.59;78.06
82249;BME280;71851;49.092;18.918;2024-03-17T04:34:17;97550.13;;;7.63;78.01
82249;BME280;71851;49.092;18.918;2024-03-17T04:37:18;97559.47;;;7.73;78.11
82249;BME280;71851;49.092;18.918;2024-03-17T04:40:19;97575.63;;;7.69;78.05
82249;BME280;71851;49.092;18.918;2024-03-17T04:43:20;97570.56;;;7.67;78.71
82249;BME280;71851;49.092;18.918;2024-03-17T04:46:21;97570.09;;;7.72;77.71
82249;BME280;71851;49.092;18.918;2024-03-17T04:49:21;97576.09;;;7.64;77.64
82249;BME280;71851;49.092;18.918;2024-03-17T04:52:22;97564.22;;;7.78;77.52
82249;BME280;71851;49.092;18.918;2024-03-17T04:55:23;97556.41;;;7.78;76.54
82249;BME280;71851;49.092;18.918;2024-03-17T04:58:24;97567.53;;;7.54;75.31
82249;BME280;71851;49.092;18.918;2024-03-17T05:01:25;97566.63;;;7.63;75.29
82249;BME280;71851;49.092;18.918;2024-03-17T05:04:25;97572.47;;;7.57;74.99
82249;BME280;71851;49.092;18.918;2024-03-17T05:07:27;97558.94;;;7.62;74.04
82249;BME280;71851;49.092;18.918;2024-03-17T05:10:28;97574.13;;;7.66;73.62
82249;BME280;71851;49.092;18.918;2024-03-17T05:13:28;97578.41;;;7.67;72.63
82249;BME280;71851;49.092;18.918;2024-03-17T05:16:29;97588.66;;;7.61;72.75
82249;BME280;71851;49.092;18.918;2024-03-17T05:19:32;97586.78;;;7.79;72.88
82249;BME280;71851;49.092;18.918;2024-03-17T05:22:32;97585.63;;;7.82;72.19
82249;BME280;71851;49.092;18.918;2024-03-17T05:25:33;97595.69;;;7.68;72.84
82249;BME280;71851;49.092;18.918;2024-03-17T05:28:36;97582.72;;;7.85;71.80
82249;BME280;71851;49.092;18.918;2024-03-17T05:31:37;97602.13;;;7.82;71.95
82249;BME280;71851;49.092;18.918;2024-03-17T05:34:40;97608.75;;;8.02;72.18
82249;BME280;71851;49.092;18.918;2024-03-17T05:37:41;97607.16;;;8.01;72.13
82249;BME280;71851;49.092;18.918;2024-03-17T05:40:41;97608.06;;;7.92;71.94
82249;BME280;71851;49.092;18.918;2024-03-17T05:43:42;97606.16;;;8.02;71.58
82249;BME280;71851;49.092;18.918;2024-03-17T05:46:43;97607.56;;;7.89;70.55
82249;BME280;71851;49.092;18.918;2024-03-17T05:49:43;97614.50;;;7.72;69.57
82249;BME280;71851;49.092;18.918;2024-03-17T05:52:43;97614.63;;;7.96;68.52
82249;BME280;71851;49.092;18.918;2024-03-17T05:55:44;97616.66;;;8.10;67.84
82249;BME280;71851;49.092;18.918;2024-03-17T05:58:45;97628.72;;;8.37;66.92
82249;BME280;71851;49.092;18.918;2024-03-17T06:01:46;97630.53;;;8.44;67.07
82249;BME280;71851;49.092;18.918;2024-03-17T06:04:46;97629.22;;;8.48;67.21
82249;BME280;71851;49.092;18.918;2024-03-17T06:07:47;97635.31;;;8.57;67.92
82249;BME280;71851;49.092;18.918;2024-03-17T06:10:48;97636.03;;;8.91;66.17
82249;BME280;71851;49.092;18.918;2024-03-17T06:13:50;97634.91;;;9.34;65.30
82249;BME280;71851;49.092;18.918;2024-03-17T06:16:51;97634.88;;;9.58;62.38
82249;BME280;71851;49.092;18.918;2024-03-17T06:19:51;97641.28;;;9.64;58.93
82249;BME280;71851;49.092;18.918;2024-03-17T06:22:55;97648.28;;;9.87;58.31
82249;BME280;71851;49.092;18.918;2024-03-17T06:25:55;97639.09;;;9.91;57.43
82249;BME280;71851;49.092;18.918;2024-03-17T06:28:56;97646.94;;;9.99;58.12
82249;BME280;71851;49.092;18.918;2024-03-17T06:31:57;97639.38;;;10.59;56.84
82249;BME280;71851;49.092;18.918;2024-03-17T06:35:01;97648.31;;;10.73;54.86
82249;BME280;71851;49.092;18.918;2024-03-17T06:38:02;97655.34;;;10.72;55.15
82249;BME280;71851;49.092;18.918;2024-03-17T06:41:02;97661.63;;;11.62;53.03
82249;BME280;71851;49.092;18.918;2024-03-17T06:44:04;97653.56;;;18.63;37.96
82249;BME280;71851;49.092;18.918;2024-03-17T06:47:06;97651.31;;;23.42;27.79
82249;BME280;71851;49.092;18.918;2024-03-17T06:50:07;97643.38;;;20.37;27.67
82249;BME280;71851;49.092;18.918;2024-03-17T06:53:12;97643.41;;;25.40;21.62
82249;BME280;71851;49.092;18.918;2024-03-17T06:56:13;97646.19;;;27.97;18.52
82249;BME280;71851;49.092;18.918;2024-03-17T06:59:13;97654.75;;;30.66;15.54
82249;BME280;71851;49.092;18.918;2024-03-17T07:02:19;97652.50;;;31.49;13.18
82249;BME280;71851;49.092;18.918;2024-03-17T07:05:20;97646.41;;;27.66;15.69
82249;BME280;71851;49.092;18.918;2024-03-17T07:08:20;97656.28;;;29.94;15.61
82249;BME280;71851;49.092;18.918;2024-03-17T07:11:21;97661.69;;;30.99;13.53
82249;BME280;71851;49.092;18.918;2024-03-17T07:14:23;97652.38;;;32.43;12.36
82249;BME280;71851;49.092;18.918;2024-03-17T07:17:26;97663.31;;;34.41;10.64
82249;BME280;71851;49.092;18.918;2024-03-17T07:20:26;97670.06;;;35.89;9.94
82249;BME280;71851;49.092;18.918;2024-03-17T07:23:27;97674.31;;;35.58;9.67
82249;BME280;71851;49.092;18.918;2024-03-17T07:26:27;97679.00;;;34.61;9.73
82249;BME280;71851;49.092;18.918;2024-03-17T07:29:28;97668.97;;;34.74;9.30
82249;BME280;71851;49.092;18.918;2024-03-17T07:32:28;97660.47;;;34.12;9.76
82249;BME280;71851;49.092;18.918;2024-03-17T07:35:28;97661.81;;;35.98;8.77
82249;BME280;71851;49.092;18.918;2024-03-17T07:38:30;97652.41;;;36.40;8.68
82249;BME280;71851;49.092;18.918;2024-03-17T07:41:30;97657.09;;;36.52;8.61
82249;BME280;71851;49.092;18.918;2024-03-17T07:44:31;97653.16;;;35.55;8.64
82249;BME280;71851;49.092;18.918;2024-03-17T07:47:35;97651.44;;;35.42;9.00
82249;BME280;71851;49.092;18.918;2024-03-17T07:50:38;97647.53;;;36.82;8.93
82249;BME280;71851;49.092;18.918;2024-03-17T07:53:40;97651.13;;;35.43;8.35
82249;BME280;71851;49.092;18.918;2024-03-17T07:56:43;97640.28;;;36.29;8.35
82249;BME280;71851;49.092;18.918;2024-03-17T07:59:43;97649.00;;;38.47;7.46
82249;BME280;71851;49.092;18.918;2024-03-17T08:02:47;97650.59;;;38.64;6.95
82249;BME280;71851;49.092;18.918;2024-03-17T08:05:50;97652.22;;;39.12;6.92
82249;BME280;71851;49.092;18.918;2024-03-17T08:08:51;97651.97;;;39.36;7.44
82249;BME280;71851;49.092;18.918;2024-03-17T08:11:52;97640.78;;;38.78;7.46
82249;BME280;71851;49.092;18.918;2024-03-17T08:14:52;97639.81;;;39.18;6.24
82249;BME280;71851;49.092;18.918;2024-03-17T08:17:53;97644.41;;;38.51;6.28
82249;BME280;71851;49.092;18.918;2024-03-17T08:20:53;97637.19;;;37.88;7.73
82249;BME280;71851;49.092;18.918;2024-03-17T08:23:54;97635.91;;;39.53;6.70
82249;BME280;71851;49.092;18.918;2024-03-17T08:26:54;97637.72;;;40.64;6.76
82249;BME280;71851;49.092;18.918;2024-03-17T08:29:55;97636.63;;;39.00;6.46
82249;BME280;71851;49.092;18.918;2024-03-17T08:32:57;97636.25;;;38.11;6.55
82249;BME280;71851;49.092;18.918;2024-03-17T08:36:02;97636.00;;;37.89;6.33
82249;BME280;71851;49.092;18.918;2024-03-17T08:39:03;97634.75;;;39.54;6.73
82249;BME280;71851;49.092;18.918;2024-03-17T08:42:03;97636.66;;;39.88;6.23
82249;BME280;71851;49.092;18.918;2024-03-17T08:45:04;97630.69;;;38.98;5.89
82249;BME280;71851;49.092;18.918;2024-03-17T08:48:05;97628.41;;;39.35;6.11
82249;BME280;71851;49.092;18.918;2024-03-17T08:51:06;97637.03;;;40.06;5.75
82249;BME280;71851;49.092;18.918;2024-03-17T08:54:07;97633.88;;;39.50;5.74
82249;BME280;71851;49.092;18.918;2024-03-17T08:57:08;97640.31;;;39.23;5.73
82249;BME280;71851;49.092;18.918;2024-03-17T09:00:11;97626.59;;;38.29;5.88
82249;BME280;71851;49.092;18.918;2024-03-17T09:03:13;97640.25;;;39.04;6.22
82249;BME280;71851;49.092;18.918;2024-03-17T09:06:16;97634.63;;;40.05;5.55
82249;BME280;71851;49.092;18.918;2024-03-17T09:09:19;97630.31;;;38.37;6.04
82249;BME280;71851;49.092;18.918;2024-03-17T09:12:19;97638.56;;;37.82;6.34
82249;BME280;71851;49.092;18.918;2024-03-17T09:15:20;97639.09;;;37.47;6.43
82249;BME280;71851;49.092;18.918;2024-03-17T09:18:22;97637.34;;;37.95;6.11
82249;BME280;71851;49.092;18.918;2024-03-17T09:21:24;97637.59;;;38.92;6.52
82249;BME280;71851;49.092;18.918;2024-03-17T09:24:25;97626.22;;;37.88;6.41
82249;BME280;71851;49.092;18.918;2024-03-17T09:27:27;97623.47;;;36.51;7.10
82249;BME280;71851;49.092;18.918;2024-03-17T09:30:27;97610.81;;;38.26;7.15
82249;BME280;71851;49.092;18.918;2024-03-17T09:33:29;97615.19;;;38.43;7.23
82249;BME280;71851;49.092;18.918;2024-03-17T09:36:31;97605.38;;;38.42;6.37
82249;BME280;71851;49.092;18.918;2024-03-17T09:39:32;97607.84;;;38.78;6.70
82249;BME280;71851;49.092;18.918;2024-03-17T09:42:32;97606.84;;;38.86;6.10
82249;BME280;71851;49.092;18.918;2024-03-17T09:45:33;97594.31;;;38.54;6.11
82249;BME280;71851;49.092;18.918;2024-03-17T09:48:34;97608.19;;;38.30;6.16
82249;BME280;71851;49.092;18.918;2024-03-17T09:51:39;97600.44;;;36.08;7.62
82249;BME280;71851;49.092;18.918;2024-03-17T09:54:39;97596.09;;;37.36;7.39
82249;BME280;71851;49.092;18.918;2024-03-17T09:57:39;97588.94;;;37.19;7.36
82249;BME280;71851;49.092;18.918;2024-03-17T10:00:40;97598.63;;;36.68;7.19
82249;BME280;71851;49.092;18.918;2024-03-17T10:03:48;97576.75;;;36.12;7.49
82249;BME280;71851;49.092;18.918;2024-03-17T10:06:52;97582.59;;;35.36;7.57
82249;BME280;71851;49.092;18.918;2024-03-17T10:10:11;97568.38;;;35.51;7.70
82249;BME280;71851;49.092;18.918;2024-03-17T10:13:12;97570.41;;;35.54;8.03
82249;BME280;71851;49.092;18.918;2024-03-17T10:16:22;97562.25;;;36.56;8.07
82249;BME280;71851;49.092;18.918;2024-03-17T10:19:25;97569.69;;;36.43;7.46
82249;BME280;71851;49.092;18.918;2024-03-17T10:22:25;97562.03;;;36.97;7.65
82249;BME280;71851;49.092;18.918;2024-03-17T10:25:27;97563.41;;;37.03;8.08
82249;BME280;71851;49.092;18.918;2024-03-17T10:28:27;97570.06;;;36.09;7.73
82249;BME280;71851;49.092;18.918;2024-03-17T10:31:28;97558.13;;;35.81;7.85
82249;BME280;71851;49.092;18.918;2024-03-17T10:34:30;97553.28;;;36.55;7.57
82249;BME280;71851;49.092;18.918;2024-03-17T10:37:37;97568.88;;;36.67;8.45
82249;BME280;71851;49.092;18.918;2024-03-17T10:40:37;97551.28;;;35.54;7.56
82249;BME280;71851;49.092;18.918;2024-03-17T10:43:40;97563.00;;;35.34;8.80
82249;BME280;71851;49.092;18.918;2024-03-17T10:46:42;97562.09;;;34.51;8.37
82249;BME280;71851;49.092;18.918;2024-03-17T10:49:45;97552.72;;;34.90;8.92
82249;BME280;71851;49.092;18.918;2024-03-17T10:52:47;97546.69;;;34.09;8.86
82249;BME280;71851;49.092;18.918;2024-03-17T10:56:00;97551.19;;;34.51;8.63
82249;BME280;71851;49.092;18.918;2024-03-17T10:59:07;97548.31;;;35.27;7.82
82249;BME280;71851;49.092;18.918;2024-03-17T11:02:20;97540.59;;;34.79;8.34
82249;BME280;71851;49.092;18.918;2024-03-17T11:05:27;97548.03;;;33.43;9.47
82249;BME280;71851;49.092;18.918;2024-03-17T11:08:34;97550.91;;;33.46;9.72
82249;BME280;71851;49.092;18.918;2024-03-17T11:11:36;97552.34;;;33.44;9.18
82249;BME280;71851;49.092;18.918;2024-03-17T11:14:40;97541.91;;;33.80;9.90
82249;BME280;71851;49.092;18.918;2024-03-17T11:17:40;97538.06;;;33.98;9.03
82249;BME280;71851;49.092;18.918;2024-03-17T11:20:42;97537.31;;;33.38;8.61
82249;BME280;71851;49.092;18.918;2024-03-17T11:23:43;97536.25;;;32.65;8.96
82249;BME280;71851;49.092;18.918;2024-03-17T11:26:43;97525.00;;;33.15;9.64
82249;BME280;71851;49.092;18.918;2024-03-17T11:29:44;97530.84;;;32.91;9.45
82249;BME280;71851;49.092;18.918;2024-03-17T11:32:44;97527.22;;;33.38;8.75
82249;BME280;71851;49.092;18.918;2024-03-17T11:35:46;97519.84;;;32.40;8.91
82249;BME280;71851;49.092;18.918;2024-03-17T11:42:04;97505.84;;;32.46;8.64
82249;BME280;71851;49.092;18.918;2024-03-17T11:45:13;97512.91;;;32.73;10.27
82249;BME280;71851;49.092;18.918;2024-03-17T11:48:16;97507.81;;;32.89;8.29
82249;BME280;71851;49.092;18.918;2024-03-17T11:51:17;97509.72;;;32.80;9.02
82249;BME280;71851;49.092;18.918;2024-03-17T11:54:20;97511.00;;;31.64;9.46
82249;BME280;71851;49.092;18.918;2024-03-17T11:57:25;97501.47;;;31.09;9.53
82249;BME280;71851;49.092;18.918;2024-03-17T12:00:27;97500.69;;;31.53;10.66
82249;BME280;71851;49.092;18.918;2024-03-17T12:03:27;97502.63;;;30.94;10.43
82249;BME280;71851;49.092;18.918;2024-03-17T12:06:28;97497.06;;;29.96;10.65
82249;BME280;71851;49.092;18.918;2024-03-17T12:09:30;97493.84;;;30.62;9.69
82249;BME280;71851;49.092;18.918;2024-03-17T12:12:31;97483.50;;;30.64;9.79
82249;BME280;71851;49.092;18.918;2024-03-17T12:15:35;97486.06;;;29.60;10.17
82249;BME280;71851;49.092;18.918;2024-03-17T12:18:35;97483.97;;;28.88;10.82
82249;BME280;71851;49.092;18.918;2024-03-17T12:21:41;97477.00;;;30.24;10.82
82249;BME280;71851;49.092;18.918;2024-03-17T12:24:44;97470.28;;;30.62;10.89
82249;BME280;71851;49.092;18.918;2024-03-17T12:27:47;97471.75;;;30.68;10.56
82249;BME280;71851;49.092;18.918;2024-03-17T12:30:49;97451.19;;;30.67;10.27
82249;BME280;71851;49.092;18.918;2024-03-17T12:33:50;97453.88;;;30.67;10.75
82249;BME280;71851;49.092;18.918;2024-03-17T12:36:51;97445.84;;;29.86;10.75
82249;BME280;71851;49.092;18.918;2024-03-17T12:39:51;97450.31;;;29.77;10.05
82249;BME280;71851;49.092;18.918;2024-03-17T12:42:52;97452.47;;;29.15;10.93
82249;BME280;71851;49.092;18.918;2024-03-17T12:45:55;97446.38;;;29.05;11.87
82249;BME280;71851;49.092;18.918;2024-03-17T12:49:00;97443.44;;;28.69;11.76
82249;BME280;71851;49.092;18.918;2024-03-17T12:52:01;97440.31;;;29.13;11.81
82249;BME280;71851;49.092;18.918;2024-03-17T12:55:08;97437.44;;;27.88;11.11
82249;BME280;71851;49.092;18.918;2024-03-17T12:58:27;97430.69;;;25.96;14.51
82249;BME280;71851;49.092;18.918;2024-03-17T13:01:46;97436.25;;;23.57;14.62
82249;BME280;71851;49.092;18.918;2024-03-17T13:04:47;97437.16;;;22.67;16.81
82249;BME280;71851;49.092;18.918;2024-03-17T13:07:47;97424.63;;;21.60;16.83
82249;BME280;71851;49.092;18.918;2024-03-17T13:10:48;97422.59;;;20.95;19.09
82249;BME280;71851;49.092;18.918;2024-03-17T13:13:49;97429.78;;;20.33;19.17
82249;BME280;71851;49.092;18.918;2024-03-17T13:16:49;97428.34;;;20.03;18.87
82249;BME280;71851;49.092;18.918;2024-03-17T13:19:49;97426.84;;;19.44;20.39
82249;BME280;71851;49.092;18.918;2024-03-17T13:22:50;97421.03;;;19.12;20.59
82249;BME280;71851;49.092;18.918;2024-03-17T13:25:51;97415.47;;;18.91;20.73
82249;BME280;71851;49.092;18.918;2024-03-17T13:28:51;97415.78;;;18.12;21.33
82249;BME280;71851;49.092;18.918;2024-03-17T13:31:52;97417.66;;;18.11;22.09
82249;BME280;71851;49.092;18.918;2024-03-17T13:34:53;97418.13;;;17.72;21.98
82249;BME280;71851;49.092;18.918;2024-03-17T13:37:53;97416.47;;;17.59;22.34
82249;BME280;71851;49.092;18.918;2024-03-17T13:41:00;97404.69;;;17.31;23.81
82249;BME280;71851;49.092;18.918;2024-03-17T13:44:00;97395.63;;;17.20;23.52
82249;BME280;71851;49.092;18.918;2024-03-17T13:47:00;97410.16;;;16.93;23.41
82249;BME280;71851;49.092;18.918;2024-03-17T13:50:04;97409.41;;;16.61;24.16
82249;BME280;71851;49.092;18.918;2024-03-17T13:53:11;97408.22;;;16.57;23.70
82249;BME280;71851;49.092;18.918;2024-03-17T13:56:11;97400.44;;;16.25;23.82
82249;BME280;71851;49.092;18.918;2024-03-17T13:59:14;97399.06;;;16.15;24.30
82249;BME280;71851;49.092;18.918;2024-03-17T14:02:14;97389.94;;;16.43;23.92
82249;BME280;71851;49.092;18.918;2024-03-17T14:05:20;97398.44;;;16.20;24.42
82249;BME280;71851;49.092;18.918;2024-03-17T14:08:21;97405.75;;;15.87;24.89
82249;BME280;71851;49.092;18.918;2024-03-17T14:11:22;97404.47;;;15.32;24.91
82249;BME280;71851;49.092;18.918;2024-03-17T14:14:23;97400.78;;;15.53;25.63
82249;BME280;71851;49.092;18.918;2024-03-17T14:17:23;97401.06;;;15.05;26.05
82249;BME280;71851;49.092;18.918;2024-03-17T14:20:24;97396.84;;;14.59;25.81
82249;BME280;71851;49.092;18.918;2024-03-17T14:23:25;97394.38;;;14.37;27.07
82249;BME280;71851;49.092;18.918;2024-03-17T14:26:25;97400.47;;;14.31;27.00
82249;BME280;71851;49.092;18.918;2024-03-17T14:29:27;97387.69;;;14.61;27.05
82249;BME280;71851;49.092;18.918;2024-03-17T14:32:27;97386.91;;;14.61;25.55
82249;BME280;71851;49.092;18.918;2024-03-17T14:35:28;97394.56;;;15.14;25.89
82249;BME280;71851;49.092;18.918;2024-03-17T14:38:31;97380.47;;;15.33;25.83
82249;BME280;71851;49.092;18.918;2024-03-17T14:41:32;97379.47;;;15.28;26.47
82249;BME280;71851;49.092;18.918;2024-03-17T14:44:34;97385.19;;;15.25;27.22
82249;BME280;71851;49.092;18.918;2024-03-17T14:47:38;97386.19;;;15.30;26.51
82249;BME280;71851;49.092;18.918;2024-03-17T14:50:39;97391.03;;;15.40;25.77
82249;BME280;71851;49.092;18.918;2024-03-17T14:53:41;97385.03;;;15.07;26.92
82249;BME280;71851;49.092;18.918;2024-03-17T14:56:48;97399.03;;;15.14;27.51
82249;BME280;71851;49.092;18.918;2024-03-17T14:59:48;97402.31;;;15.73;25.46
82249;BME280;71851;49.092;18.918;2024-03-17T15:02:51;97398.53;;;16.07;25.39
82249;BME280;71851;49.092;18.918;2024-03-17T15:05:51;97391.31;;;16.52;24.89
82249;BME280;71851;49.092;18.918;2024-03-17T15:08:52;97386.94;;;17.31;24.80
82249;BME280;71851;49.092;18.918;2024-03-17T15:11:52;97395.81;;;17.43;23.69
82249;BME280;71851;49.092;18.918;2024-03-17T15:14:53;97397.09;;;16.91;24.55
82249;BME280;71851;49.092;18.918;2024-03-17T15:17:55;97400.44;;;16.25;25.55
82249;BME280;71851;49.092;18.918;2024-03-17T15:20:56;97396.38;;;15.84;25.90
82249;BME280;71851;49.092;18.918;2024-03-17T15:23:56;97394.72;;;15.96;25.58
82249;BME280;71851;49.092;18.918;2024-03-17T15:26:56;97382.19;;;21.63;18.95
82249;BME280;71851;49.092;18.918;2024-03-17T15:29:57;97377.91;;;24.61;16.28
82249;BME280;71851;49.092;18.918;2024-03-17T15:32:58;97392.13;;;20.47;19.91
82249;BME280;71851;49.092;18.918;2024-03-17T15:35:58;97388.66;;;18.39;22.03
82249;BME280;71851;49.092;18.918;2024-03-17T15:39:01;97385.00;;;17.20;23.95
82249;BME280;71851;49.092;18.918;2024-03-17T15:42:02;97398.06;;;16.79;24.97
82249;BME280;71851;49.092;18.918;2024-03-17T15:45:03;97398.66;;;15.81;26.72
82249;BME280;71851;49.092;18.918;2024-03-17T15:48:07;97390.06;;;15.28;27.11
82249;BME280;71851;49.092;18.918;2024-03-17T15:51:08;97405.97;;;14.69;28.72
82249;BME280;71851;49.092;18.918;2024-03-17T15:54:09;97400.66;;;14.30;29.14
82249;BME280;71851;49.092;18.918;2024-03-17T15:57:10;97405.28;;;13.61;29.28
82249;BME280;71851;49.092;18.918;2024-03-17T16:00:11;97398.66;;;13.24;30.75